Aviation Forecast - National Meteorological Service of Belize
  • Small Craft Caution is in effect for occasional gusty winds and rough seas.

 Monday, January 21, 2019     |     Print Forecast

From 1200, January 21, 2019   |   To 2400, January 21, 2019

All Heights in the forecast are above sea level. PS= Positive, MS= Minus. All times are UTC.

COOL AND DRY CONDITIONS PREVAL OVER THE AREA...
Height (ft) Wind (True Degrees and Knots) Temperature (°C)
Surface 35010 24-26
2,000 01020 13
5,000 28515 9
10,000 09510 11
FEW/SCT CU BASES 1,500-2,200FT. TOPS 8,000-10,000FT.
BKN SC LAYERED 3,000-5,000FT.
GREATER THAN 10KM; REDUCED TO 5000 IN SHRA/RA AND 0500M IN FOG.
VARIABLY CLOUDY AND COOL WITH LITTLE OR NO RAINFALL.
MOD TURB NEAR SFC; LOW CLOUD COVERING HILLS.
RISING
CLOUDY AT TIMES WITH GENERALLY ISOLATED SHOWERS AND SLIGHTLY MORE IN THE NORTH.
210900Z 2112/2212 33010G20KT 9999 SCT022 BKN040 BECMG 2114/2116 02008KT=
Belize
05:40 January 21, 2019

Forecaster: Young, Shanea

Updated at: Jan 21, 2019 05:42 AM